Accueil
METAR-TAF:

METAR-TAF

Aéroports :

Base aérienne de Kleine-Brogel

Peer, Belgique

latitude: 51-10N, longitude: 005-28E, altitude: 55 m

Observation

Le bulletin a été fait il y a 36 minutes, à 19:55 UTC
Vent 1 kt de direction variable
Température 10°C
Humidité 82%
Pression 1029 hPa
Visibilité 10 km ou plus

METAR: EBBL 061955Z AUTO VRB01KT 9999 NCD 10/07 Q1029 BLU

Heure: 22:31 (20:31 UTC)

Prévision

Le bulletin a été fait il y a 8 heures et 50 minutes, à 11:41 UTC
Prévision valable du 06 à 13 UTC au 06 à 22 UTC
Vent 9 kt de sud-ouest
Visibilité 10 km ou plus
Ciel clair
Temporairement
du 06 à 13 UTC au 06 à 16 UTC
Vent 8 kt de sud-ouest avec des rafales jusqu'à 18 kt

TAF: EBBL 061141Z 0613/0622 23009KT 9999 SKC TEMPO 0613/0616 23008G18KT

Observations et prévisions météorologiques de plus de 4000 aéroports (messages METAR et TAF).

Les stations disponibles sont représentées par des disques jaunes et rouges sur la carte.

Passer la souris dessus pour voir le nom de la station.

Cliquer dessus pour voir les observations et prévisions météorologiques.

Pour changer de carte: cliquez sur les boutons verts avec une croix noire pour zoomer, sur le bouton vert avec un tiret pour effectuer un zoom arrière, ou sur les flèches vertes pour les cartes adjacentes.


METAR-TAF: